sensor_id;sensor_type;location;lat;lon;timestamp;pressure;altitude;pressure_sealevel;temperature;humidity
64853;BME280;56050;55.558;-4.644;2023-11-22T00:00:07;102625.94;;;11.65;78.78
64853;BME280;56050;55.558;-4.644;2023-11-22T00:02:33;102609.25;;;11.63;78.89
64853;BME280;56050;55.558;-4.644;2023-11-22T00:04:58;102596.91;;;11.62;78.89
64853;BME280;56050;55.558;-4.644;2023-11-22T00:07:24;102589.94;;;11.61;78.91
64853;BME280;56050;55.558;-4.644;2023-11-22T00:09:49;102586.91;;;11.62;79.03
64853;BME280;56050;55.558;-4.644;2023-11-22T00:12:14;102583.41;;;11.62;78.80
64853;BME280;56050;55.558;-4.644;2023-11-22T00:14:43;102598.81;;;11.61;79.02
64853;BME280;56050;55.558;-4.644;2023-11-22T00:17:08;102600.75;;;11.61;78.77
64853;BME280;56050;55.558;-4.644;2023-11-22T00:19:34;102600.75;;;11.61;78.95
64853;BME280;56050;55.558;-4.644;2023-11-22T00:22:00;102621.53;;;11.60;78.93
64853;BME280;56050;55.558;-4.644;2023-11-22T00:24:25;102634.25;;;11.60;78.99
64853;BME280;56050;55.558;-4.644;2023-11-22T00:26:51;102626.94;;;11.60;78.85
64853;BME280;56050;55.558;-4.644;2023-11-22T00:29:16;102605.34;;;11.60;79.01
64853;BME280;56050;55.558;-4.644;2023-11-22T00:31:41;102605.34;;;11.60;78.76
64853;BME280;56050;55.558;-4.644;2023-11-22T00:34:08;102601.09;;;11.59;78.99
64853;BME280;56050;55.558;-4.644;2023-11-22T00:36:33;102598.03;;;11.61;79.01
64853;BME280;56050;55.558;-4.644;2023-11-22T00:38:58;102597.34;;;11.64;79.09
64853;BME280;56050;55.558;-4.644;2023-11-22T00:41:30;102596.22;;;11.65;79.09
64853;BME280;56050;55.558;-4.644;2023-11-22T00:43:55;102596.66;;;11.67;78.80
64853;BME280;56050;55.558;-4.644;2023-11-22T00:46:20;102606.34;;;11.68;79.07
64853;BME280;56050;55.558;-4.644;2023-11-22T00:48:46;102605.22;;;11.69;78.81
64853;BME280;56050;55.558;-4.644;2023-11-22T00:51:11;102605.66;;;11.71;79.12
64853;BME280;56050;55.558;-4.644;2023-11-22T00:53:38;102591.03;;;11.72;78.80
64853;BME280;56050;55.558;-4.644;2023-11-22T00:56:05;102587.19;;;11.73;78.89
64853;BME280;56050;55.558;-4.644;2023-11-22T00:58:31;102592.25;;;11.74;78.97
64853;BME280;56050;55.558;-4.644;2023-11-22T01:00:57;102583.03;;;11.75;78.99
64853;BME280;56050;55.558;-4.644;2023-11-22T01:03:23;102578.41;;;11.76;78.98
64853;BME280;56050;55.558;-4.644;2023-11-22T01:05:48;102596.53;;;11.75;78.74
64853;BME280;56050;55.558;-4.644;2023-11-22T01:08:14;102580.31;;;11.75;78.64
64853;BME280;56050;55.558;-4.644;2023-11-22T01:10:39;102564.44;;;11.74;78.62
64853;BME280;56050;55.558;-4.644;2023-11-22T01:13:05;102557.50;;;11.73;78.67
64853;BME280;56050;55.558;-4.644;2023-11-22T01:15:31;102566.41;;;11.73;78.71
64853;BME280;56050;55.558;-4.644;2023-11-22T01:17:56;102567.16;;;11.74;78.71
64853;BME280;56050;55.558;-4.644;2023-11-22T01:20:22;102564.81;;;11.72;78.79
64853;BME280;56050;55.558;-4.644;2023-11-22T01:22:48;102563.22;;;11.71;78.64
64853;BME280;56050;55.558;-4.644;2023-11-22T01:25:14;102567.84;;;11.71;78.63
64853;BME280;56050;55.558;-4.644;2023-11-22T01:27:39;102570.91;;;11.69;78.75
64853;BME280;56050;55.558;-4.644;2023-11-22T01:30:05;102558.50;;;11.68;78.66
64853;BME280;56050;55.558;-4.644;2023-11-22T01:32:33;102551.56;;;11.67;78.81
64853;BME280;56050;55.558;-4.644;2023-11-22T01:35:00;102555.81;;;11.68;78.88
64853;BME280;56050;55.558;-4.644;2023-11-22T01:37:25;102549.31;;;11.69;78.75
64853;BME280;56050;55.558;-4.644;2023-11-22T01:39:51;102548.19;;;11.70;78.71
64853;BME280;56050;55.558;-4.644;2023-11-22T01:42:17;102540.84;;;11.71;78.82
64853;BME280;56050;55.558;-4.644;2023-11-22T01:44:43;102550.19;;;11.73;78.81
64853;BME280;56050;55.558;-4.644;2023-11-22T01:47:08;102547.50;;;11.73;78.94
64853;BME280;56050;55.558;-4.644;2023-11-22T01:49:34;102559.06;;;11.74;78.90
64853;BME280;56050;55.558;-4.644;2023-11-22T01:52:01;102549.84;;;11.75;78.82
64853;BME280;56050;55.558;-4.644;2023-11-22T01:54:29;102546.34;;;11.74;78.92
64853;BME280;56050;55.558;-4.644;2023-11-22T01:56:55;102550.63;;;11.75;78.70
64853;BME280;56050;55.558;-4.644;2023-11-22T01:59:21;102547.13;;;11.75;79.01
64853;BME280;56050;55.558;-4.644;2023-11-22T02:01:48;102562.22;;;11.76;78.66
64853;BME280;56050;55.558;-4.644;2023-11-22T02:04:14;102535.97;;;11.76;78.95
64853;BME280;56050;55.558;-4.644;2023-11-22T02:06:40;102544.53;;;11.78;78.90
64853;BME280;56050;55.558;-4.644;2023-11-22T02:09:06;102544.94;;;11.81;78.90
64853;BME280;56050;55.558;-4.644;2023-11-22T02:11:32;102533.03;;;11.82;78.71
64853;BME280;56050;55.558;-4.644;2023-11-22T02:13:57;102531.88;;;11.83;78.90
64853;BME280;56050;55.558;-4.644;2023-11-22T02:16:22;102518.75;;;11.81;78.84
64853;BME280;56050;55.558;-4.644;2023-11-22T02:18:48;102512.53;;;11.81;79.03
64853;BME280;56050;55.558;-4.644;2023-11-22T02:21:16;102502.88;;;11.79;78.86
64853;BME280;56050;55.558;-4.644;2023-11-22T02:23:42;102494.78;;;11.79;78.81
64853;BME280;56050;55.558;-4.644;2023-11-22T02:26:07;102490.94;;;11.81;78.96
64853;BME280;56050;55.558;-4.644;2023-11-22T02:28:33;102495.97;;;11.82;78.98
64853;BME280;56050;55.558;-4.644;2023-11-22T02:30:59;102482.16;;;11.84;78.87
64853;BME280;56050;55.558;-4.644;2023-11-22T02:33:24;102489.88;;;11.85;78.98
64853;BME280;56050;55.558;-4.644;2023-11-22T02:35:50;102504.19;;;11.86;78.74
64853;BME280;56050;55.558;-4.644;2023-11-22T02:38:15;102504.53;;;11.84;79.08
64853;BME280;56050;55.558;-4.644;2023-11-22T02:40:43;102492.94;;;11.84;78.99
64853;BME280;56050;55.558;-4.644;2023-11-22T02:43:09;102483.72;;;11.85;79.04
64853;BME280;56050;55.558;-4.644;2023-11-22T02:45:36;102487.97;;;11.86;79.01
64853;BME280;56050;55.558;-4.644;2023-11-22T02:48:02;102497.22;;;11.85;78.80
64853;BME280;56050;55.558;-4.644;2023-11-22T02:50:29;102483.34;;;11.86;78.79
64853;BME280;56050;55.558;-4.644;2023-11-22T02:52:57;102474.13;;;11.87;78.96
64853;BME280;56050;55.558;-4.644;2023-11-22T02:55:24;102471.50;;;11.91;79.10
64853;BME280;56050;55.558;-4.644;2023-11-22T02:57:50;102463.84;;;11.93;78.93
64853;BME280;56050;55.558;-4.644;2023-11-22T03:00:16;102462.69;;;11.94;78.96
64853;BME280;56050;55.558;-4.644;2023-11-22T03:02:45;102447.63;;;11.93;78.90
64853;BME280;56050;55.558;-4.644;2023-11-22T03:05:12;102446.47;;;11.94;78.78
64853;BME280;56050;55.558;-4.644;2023-11-22T03:07:38;102447.19;;;11.91;78.81
64853;BME280;56050;55.558;-4.644;2023-11-22T03:10:04;102447.56;;;11.89;78.99
64853;BME280;56050;55.558;-4.644;2023-11-22T03:12:30;102449.81;;;11.87;79.10
64853;BME280;56050;55.558;-4.644;2023-11-22T03:14:55;102438.25;;;11.87;79.00
64853;BME280;56050;55.558;-4.644;2023-11-22T03:17:26;102442.06;;;11.86;79.18
64853;BME280;56050;55.558;-4.644;2023-11-22T03:19:54;102439.38;;;11.86;79.15
64853;BME280;56050;55.558;-4.644;2023-11-22T03:22:21;102442.50;;;11.88;79.22
64853;BME280;56050;55.558;-4.644;2023-11-22T03:24:46;102463.75;;;11.89;79.19
64853;BME280;56050;55.558;-4.644;2023-11-22T03:27:12;102456.06;;;11.91;79.20
64853;BME280;56050;55.558;-4.644;2023-11-22T03:29:38;102455.75;;;11.93;78.96
64853;BME280;56050;55.558;-4.644;2023-11-22T03:32:04;102446.47;;;11.94;78.94
64853;BME280;56050;55.558;-4.644;2023-11-22T03:34:29;102441.09;;;11.94;79.15
64853;BME280;56050;55.558;-4.644;2023-11-22T03:36:55;102438.03;;;11.95;79.18
64853;BME280;56050;55.558;-4.644;2023-11-22T03:39:20;102424.53;;;11.95;79.02
64853;BME280;56050;55.558;-4.644;2023-11-22T03:41:45;102425.31;;;11.96;79.16
64853;BME280;56050;55.558;-4.644;2023-11-22T03:44:11;102417.97;;;11.96;79.21
64853;BME280;56050;55.558;-4.644;2023-11-22T03:46:38;102412.53;;;11.93;79.10
64853;BME280;56050;55.558;-4.644;2023-11-22T03:49:04;102416.34;;;11.92;79.26
64853;BME280;56050;55.558;-4.644;2023-11-22T03:51:31;102405.56;;;11.92;79.38
64853;BME280;56050;55.558;-4.644;2023-11-22T03:53:57;102382.03;;;11.92;79.38
64853;BME280;56050;55.558;-4.644;2023-11-22T03:56:22;102371.22;;;11.92;79.35
64853;BME280;56050;55.558;-4.644;2023-11-22T03:58:48;102380.88;;;11.93;79.31
64853;BME280;56050;55.558;-4.644;2023-11-22T04:01:14;102384.03;;;11.95;79.10
64853;BME280;56050;55.558;-4.644;2023-11-22T04:03:41;102394.03;;;11.95;79.22
64853;BME280;56050;55.558;-4.644;2023-11-22T04:06:06;102404.06;;;11.94;79.09
64853;BME280;56050;55.558;-4.644;2023-11-22T04:08:32;102398.66;;;11.94;79.13
64853;BME280;56050;55.558;-4.644;2023-11-22T04:10:57;102389.44;;;11.95;79.45
64853;BME280;56050;55.558;-4.644;2023-11-22T04:13:22;102384.81;;;11.96;79.07
64853;BME280;56050;55.558;-4.644;2023-11-22T04:15:50;102393.34;;;11.98;79.34
64853;BME280;56050;55.558;-4.644;2023-11-22T04:18:15;102388.34;;;12.00;79.38
64853;BME280;56050;55.558;-4.644;2023-11-22T04:20:41;102384.16;;;12.02;79.22
64853;BME280;56050;55.558;-4.644;2023-11-22T04:23:07;102376.84;;;12.03;79.15
64853;BME280;56050;55.558;-4.644;2023-11-22T04:25:36;102369.16;;;12.05;79.08
64853;BME280;56050;55.558;-4.644;2023-11-22T04:28:02;102364.19;;;12.07;79.37
64853;BME280;56050;55.558;-4.644;2023-11-22T04:30:27;102352.63;;;12.06;79.01
64853;BME280;56050;55.558;-4.644;2023-11-22T04:32:53;102344.94;;;12.08;79.08
64853;BME280;56050;55.558;-4.644;2023-11-22T04:35:18;102352.66;;;12.10;79.24
64853;BME280;56050;55.558;-4.644;2023-11-22T04:37:43;102358.50;;;12.12;79.32
64853;BME280;56050;55.558;-4.644;2023-11-22T04:40:09;102367.38;;;12.12;79.11
64853;BME280;56050;55.558;-4.644;2023-11-22T04:42:36;102367.03;;;12.14;79.25
64853;BME280;56050;55.558;-4.644;2023-11-22T04:45:03;102378.63;;;12.14;79.39
64853;BME280;56050;55.558;-4.644;2023-11-22T04:47:29;102375.56;;;12.16;79.26
64853;BME280;56050;55.558;-4.644;2023-11-22T04:49:54;102374.44;;;12.17;79.25
64853;BME280;56050;55.558;-4.644;2023-11-22T04:52:19;102371.34;;;12.18;79.39
64853;BME280;56050;55.558;-4.644;2023-11-22T04:54:45;102364.47;;;12.21;79.34
64853;BME280;56050;55.558;-4.644;2023-11-22T04:57:10;102368.03;;;12.25;79.32
64853;BME280;56050;55.558;-4.644;2023-11-22T04:59:36;102364.63;;;12.28;79.13
64853;BME280;56050;55.558;-4.644;2023-11-22T05:02:02;102358.50;;;12.31;79.32
64853;BME280;56050;55.558;-4.644;2023-11-22T05:04:27;102360.03;;;12.32;79.10
64853;BME280;56050;55.558;-4.644;2023-11-22T05:06:56;102357.78;;;12.34;79.16
64853;BME280;56050;55.558;-4.644;2023-11-22T05:09:21;102364.38;;;12.36;79.23
64853;BME280;56050;55.558;-4.644;2023-11-22T05:11:47;102372.53;;;12.40;79.26
64853;BME280;56050;55.558;-4.644;2023-11-22T05:14:12;102372.19;;;12.42;79.26
64853;BME280;56050;55.558;-4.644;2023-11-22T05:16:40;102368.78;;;12.45;79.31
64853;BME280;56050;55.558;-4.644;2023-11-22T05:19:06;102372.69;;;12.47;79.49
64853;BME280;56050;55.558;-4.644;2023-11-22T05:21:32;102354.97;;;12.50;79.09
64853;BME280;56050;55.558;-4.644;2023-11-22T05:23:58;102368.56;;;12.53;79.42
64853;BME280;56050;55.558;-4.644;2023-11-22T05:26:24;102360.94;;;12.59;79.41
64853;BME280;56050;55.558;-4.644;2023-11-22T05:28:50;102360.97;;;12.62;79.50
64853;BME280;56050;55.558;-4.644;2023-11-22T05:31:15;102349.81;;;12.64;79.17
64853;BME280;56050;55.558;-4.644;2023-11-22T05:33:41;102361.41;;;12.64;78.87
64853;BME280;56050;55.558;-4.644;2023-11-22T05:36:07;102349.81;;;12.64;78.97
64853;BME280;56050;55.558;-4.644;2023-11-22T05:38:33;102355.63;;;12.66;79.18
64853;BME280;56050;55.558;-4.644;2023-11-22T05:40:59;102347.53;;;12.66;79.13
64853;BME280;56050;55.558;-4.644;2023-11-22T05:43:25;102354.13;;;12.68;79.22
64853;BME280;56050;55.558;-4.644;2023-11-22T05:45:52;102350.31;;;12.69;79.18
64853;BME280;56050;55.558;-4.644;2023-11-22T05:48:18;102336.78;;;12.69;78.90
64853;BME280;56050;55.558;-4.644;2023-11-22T05:50:45;102332.16;;;12.70;79.28
64853;BME280;56050;55.558;-4.644;2023-11-22T05:53:10;102323.66;;;12.71;79.15
64853;BME280;56050;55.558;-4.644;2023-11-22T05:55:36;102313.28;;;12.73;78.99
64853;BME280;56050;55.558;-4.644;2023-11-22T05:58:03;102308.31;;;12.75;79.16
64853;BME280;56050;55.558;-4.644;2023-11-22T06:00:28;102304.44;;;12.76;78.95
64853;BME280;56050;55.558;-4.644;2023-11-22T06:02:54;102308.72;;;12.77;78.93
64853;BME280;56050;55.558;-4.644;2023-11-22T06:05:20;102315.69;;;12.78;79.15
64853;BME280;56050;55.558;-4.644;2023-11-22T06:07:46;102300.59;;;12.77;79.09
64853;BME280;56050;55.558;-4.644;2023-11-22T06:10:12;102303.72;;;12.79;79.14
64853;BME280;56050;55.558;-4.644;2023-11-22T06:12:41;102311.09;;;12.82;79.18
64853;BME280;56050;55.558;-4.644;2023-11-22T06:15:07;102320.78;;;12.83;79.06
64853;BME280;56050;55.558;-4.644;2023-11-22T06:17:33;102311.97;;;12.86;78.92
64853;BME280;56050;55.558;-4.644;2023-11-22T06:19:58;102322.41;;;12.88;78.95
64853;BME280;56050;55.558;-4.644;2023-11-22T06:22:23;102322.00;;;12.86;78.79
64853;BME280;56050;55.558;-4.644;2023-11-22T06:24:49;102322.78;;;12.86;78.82
64853;BME280;56050;55.558;-4.644;2023-11-22T06:27:14;102327.03;;;12.87;79.00
64853;BME280;56050;55.558;-4.644;2023-11-22T06:29:42;102315.41;;;12.87;79.20
64853;BME280;56050;55.558;-4.644;2023-11-22T06:32:12;102310.78;;;12.87;79.01
64853;BME280;56050;55.558;-4.644;2023-11-22T06:34:37;102326.63;;;12.85;79.12
64853;BME280;56050;55.558;-4.644;2023-11-22T06:37:03;102310.75;;;12.84;79.18
64853;BME280;56050;55.558;-4.644;2023-11-22T06:39:29;102313.47;;;12.84;79.15
64853;BME280;56050;55.558;-4.644;2023-11-22T06:41:54;102317.31;;;12.83;78.99
64853;BME280;56050;55.558;-4.644;2023-11-22T06:44:20;102314.59;;;12.83;79.16
64853;BME280;56050;55.558;-4.644;2023-11-22T06:46:46;102318.88;;;12.84;79.06
64853;BME280;56050;55.558;-4.644;2023-11-22T06:49:11;102321.59;;;12.84;79.25
64853;BME280;56050;55.558;-4.644;2023-11-22T06:51:37;102325.41;;;12.83;79.46
64853;BME280;56050;55.558;-4.644;2023-11-22T06:54:02;102333.16;;;12.84;79.37
64853;BME280;56050;55.558;-4.644;2023-11-22T06:56:28;102314.59;;;12.83;79.25
64853;BME280;56050;55.558;-4.644;2023-11-22T06:58:54;102304.91;;;12.82;79.57
64853;BME280;56050;55.558;-4.644;2023-11-22T07:01:22;102306.47;;;12.83;79.44
64853;BME280;56050;55.558;-4.644;2023-11-22T07:03:48;102291.81;;;12.84;79.29
64853;BME280;56050;55.558;-4.644;2023-11-22T07:06:14;102304.56;;;12.83;79.33
64853;BME280;56050;55.558;-4.644;2023-11-22T07:08:40;102321.59;;;12.84;79.50
64853;BME280;56050;55.558;-4.644;2023-11-22T07:11:06;102311.16;;;12.86;79.29
64853;BME280;56050;55.558;-4.644;2023-11-22T07:13:35;102309.25;;;12.86;79.35
64853;BME280;56050;55.558;-4.644;2023-11-22T07:16:04;102299.63;;;12.89;79.40
64853;BME280;56050;55.558;-4.644;2023-11-22T07:18:29;102308.94;;;12.91;79.41
64853;BME280;56050;55.558;-4.644;2023-11-22T07:20:54;102315.56;;;12.94;79.01
64853;BME280;56050;55.558;-4.644;2023-11-22T07:23:20;102297.75;;;12.93;79.16
64853;BME280;56050;55.558;-4.644;2023-11-22T07:25:50;102268.78;;;12.93;79.38
64853;BME280;56050;55.558;-4.644;2023-11-22T07:28:16;102279.66;;;12.97;79.16
64853;BME280;56050;55.558;-4.644;2023-11-22T07:30:41;102264.22;;;12.98;79.16
64853;BME280;56050;55.558;-4.644;2023-11-22T07:33:07;102277.00;;;13.01;79.12
64853;BME280;56050;55.558;-4.644;2023-11-22T07:35:33;102264.25;;;13.01;79.38
64853;BME280;56050;55.558;-4.644;2023-11-22T07:37:59;102260.78;;;13.01;79.09
64853;BME280;56050;55.558;-4.644;2023-11-22T07:40:24;102265.44;;;13.04;79.36
64853;BME280;56050;55.558;-4.644;2023-11-22T07:42:49;102264.31;;;13.05;79.29
64853;BME280;56050;55.558;-4.644;2023-11-22T07:45:15;102274.00;;;13.06;79.03
64853;BME280;56050;55.558;-4.644;2023-11-22T07:47:41;102276.00;;;13.09;78.94
64853;BME280;56050;55.558;-4.644;2023-11-22T07:50:09;102270.13;;;13.07;79.12
64853;BME280;56050;55.558;-4.644;2023-11-22T07:52:34;102274.06;;;13.09;79.29
64853;BME280;56050;55.558;-4.644;2023-11-22T07:55:00;102264.00;;;13.10;79.04
64853;BME280;56050;55.558;-4.644;2023-11-22T07:57:25;102264.44;;;13.12;79.25
64853;BME280;56050;55.558;-4.644;2023-11-22T07:59:51;102267.91;;;13.12;79.20
64853;BME280;56050;55.558;-4.644;2023-11-22T08:02:20;102274.88;;;13.13;79.18
64853;BME280;56050;55.558;-4.644;2023-11-22T08:04:46;102271.81;;;13.15;79.10
64853;BME280;56050;55.558;-4.644;2023-11-22T08:07:13;102261.78;;;13.15;79.08
64853;BME280;56050;55.558;-4.644;2023-11-22T08:09:43;102261.78;;;13.15;79.21
64853;BME280;56050;55.558;-4.644;2023-11-22T08:12:09;102262.56;;;13.16;79.29
64853;BME280;56050;55.558;-4.644;2023-11-22T08:14:36;102267.25;;;13.19;79.29
64853;BME280;56050;55.558;-4.644;2023-11-22T08:17:02;102262.22;;;13.21;79.45
64853;BME280;56050;55.558;-4.644;2023-11-22T08:19:29;102261.09;;;13.22;79.29
64853;BME280;56050;55.558;-4.644;2023-11-22T08:21:54;102258.00;;;13.23;79.25
64853;BME280;56050;55.558;-4.644;2023-11-22T08:24:20;102258.44;;;13.25;79.48
64853;BME280;56050;55.558;-4.644;2023-11-22T08:26:45;102257.69;;;13.28;79.40
64853;BME280;56050;55.558;-4.644;2023-11-22T08:29:11;102258.13;;;13.30;79.39
64853;BME280;56050;55.558;-4.644;2023-11-22T08:31:37;102260.44;;;13.32;79.24
64853;BME280;56050;55.558;-4.644;2023-11-22T08:34:02;102245.78;;;13.33;79.29
64853;BME280;56050;55.558;-4.644;2023-11-22T08:36:32;102245.06;;;13.36;79.24
64853;BME280;56050;55.558;-4.644;2023-11-22T08:39:00;102243.13;;;13.36;79.23
64853;BME280;56050;55.558;-4.644;2023-11-22T08:41:27;102246.25;;;13.38;79.39
64853;BME280;56050;55.558;-4.644;2023-11-22T08:43:52;102247.44;;;13.41;79.43
64853;BME280;56050;55.558;-4.644;2023-11-22T08:46:17;102249.00;;;13.42;79.38
64853;BME280;56050;55.558;-4.644;2023-11-22T08:48:43;102244.41;;;13.46;79.37
64853;BME280;56050;55.558;-4.644;2023-11-22T08:51:09;102254.88;;;13.47;79.14
64853;BME280;56050;55.558;-4.644;2023-11-22T08:53:35;102243.66;;;13.49;79.10
64853;BME280;56050;55.558;-4.644;2023-11-22T08:56:00;102244.84;;;13.51;79.06
64853;BME280;56050;55.558;-4.644;2023-11-22T08:58:25;102248.34;;;13.52;79.04
64853;BME280;56050;55.558;-4.644;2023-11-22T09:00:52;102246.03;;;13.54;78.88
64853;BME280;56050;55.558;-4.644;2023-11-22T09:03:18;102244.13;;;13.54;79.08
64853;BME280;56050;55.558;-4.644;2023-11-22T09:05:44;102249.94;;;13.57;79.02
64853;BME280;56050;55.558;-4.644;2023-11-22T09:08:11;102256.13;;;13.57;79.08
64853;BME280;56050;55.558;-4.644;2023-11-22T09:10:39;102248.00;;;13.57;78.88
64853;BME280;56050;55.558;-4.644;2023-11-22T09:13:06;102251.50;;;13.58;79.31
64853;BME280;56050;55.558;-4.644;2023-11-22T09:15:32;102248.00;;;13.57;78.93
64853;BME280;56050;55.558;-4.644;2023-11-22T09:17:59;102245.69;;;13.59;79.02
64853;BME280;56050;55.558;-4.644;2023-11-22T09:20:25;102238.38;;;13.60;79.08
64853;BME280;56050;55.558;-4.644;2023-11-22T09:22:53;102231.44;;;13.62;79.20
64853;BME280;56050;55.558;-4.644;2023-11-22T09:27:45;102223.69;;;13.61;79.01
64853;BME280;56050;55.558;-4.644;2023-11-22T09:30:20;102226.41;;;13.61;79.02
64853;BME280;56050;55.558;-4.644;2023-11-22T09:35:26;102215.91;;;13.59;78.95
64853;BME280;56050;55.558;-4.644;2023-11-22T09:37:55;102203.13;;;13.56;79.09
64853;BME280;56050;55.558;-4.644;2023-11-22T09:40:22;102217.81;;;13.55;79.10
64853;BME280;56050;55.558;-4.644;2023-11-22T09:42:48;102221.25;;;13.52;79.00
64853;BME280;56050;55.558;-4.644;2023-11-22T09:45:20;102219.69;;;13.51;79.16
64853;BME280;56050;55.558;-4.644;2023-11-22T09:47:45;102217.31;;;13.46;78.86
64853;BME280;56050;55.558;-4.644;2023-11-22T09:50:20;102225.81;;;13.44;78.95
64853;BME280;56050;55.558;-4.644;2023-11-22T09:52:52;102219.63;;;13.44;79.12
64853;BME280;56050;55.558;-4.644;2023-11-22T09:55:21;102226.56;;;13.45;78.96
64853;BME280;56050;55.558;-4.644;2023-11-22T09:57:48;102222.72;;;13.46;78.93
64853;BME280;56050;55.558;-4.644;2023-11-22T10:00:15;102203.00;;;13.45;78.75
64853;BME280;56050;55.558;-4.644;2023-11-22T10:02:44;102221.94;;;13.45;78.96
64853;BME280;56050;55.558;-4.644;2023-11-22T10:05:09;102211.56;;;13.47;78.79
64853;BME280;56050;55.558;-4.644;2023-11-22T10:07:36;102201.47;;;13.48;78.40
64853;BME280;56050;55.558;-4.644;2023-11-22T10:10:03;102198.78;;;13.48;78.48
64853;BME280;56050;55.558;-4.644;2023-11-22T10:12:31;102205.38;;;13.50;78.41
64853;BME280;56050;55.558;-4.644;2023-11-22T10:15:14;102197.25;;;13.50;78.33
64853;BME280;56050;55.558;-4.644;2023-11-22T10:17:40;102193.41;;;13.51;78.04
64853;BME280;56050;55.558;-4.644;2023-11-22T10:20:07;102212.00;;;13.53;77.97
64853;BME280;56050;55.558;-4.644;2023-11-22T10:22:46;102216.63;;;13.52;77.85
64853;BME280;56050;55.558;-4.644;2023-11-22T10:25:14;102217.00;;;13.51;77.87
64853;BME280;56050;55.558;-4.644;2023-11-22T10:27:39;102217.78;;;13.51;77.88
64853;BME280;56050;55.558;-4.644;2023-11-22T10:30:08;102217.78;;;13.51;77.60
64853;BME280;56050;55.558;-4.644;2023-11-22T10:32:37;102215.13;;;13.55;77.54
64853;BME280;56050;55.558;-4.644;2023-11-22T10:35:04;102226.69;;;13.52;77.30
64853;BME280;56050;55.558;-4.644;2023-11-22T10:37:29;102233.63;;;13.49;77.75
64853;BME280;56050;55.558;-4.644;2023-11-22T10:39:54;102245.56;;;13.48;77.82
64853;BME280;56050;55.558;-4.644;2023-11-22T10:42:21;102249.47;;;13.51;77.64
64853;BME280;56050;55.558;-4.644;2023-11-22T10:44:48;102244.50;;;13.53;77.85
64853;BME280;56050;55.558;-4.644;2023-11-22T10:47:14;102239.44;;;13.51;78.13
64853;BME280;56050;55.558;-4.644;2023-11-22T10:49:42;102252.19;;;13.51;78.26
64853;BME280;56050;55.558;-4.644;2023-11-22T10:52:13;102241.00;;;13.52;78.12
64853;BME280;56050;55.558;-4.644;2023-11-22T10:54:44;102243.31;;;13.54;78.21
64853;BME280;56050;55.558;-4.644;2023-11-22T10:57:14;102256.13;;;13.57;78.15
64853;BME280;56050;55.558;-4.644;2023-11-22T10:59:43;102257.72;;;13.62;78.00
64853;BME280;56050;55.558;-4.644;2023-11-22T11:02:16;102261.22;;;13.62;77.97
64853;BME280;56050;55.558;-4.644;2023-11-22T11:04:47;102250.38;;;13.62;78.31
64853;BME280;56050;55.558;-4.644;2023-11-22T11:07:17;102251.16;;;13.63;78.06
64853;BME280;56050;55.558;-4.644;2023-11-22T11:09:49;102238.41;;;13.63;77.95
64853;BME280;56050;55.558;-4.644;2023-11-22T11:12:17;102246.94;;;13.65;78.05
64853;BME280;56050;55.558;-4.644;2023-11-22T11:14:43;102220.69;;;13.69;78.04
64853;BME280;56050;55.558;-4.644;2023-11-22T11:17:12;102236.59;;;13.74;78.11
64853;BME280;56050;55.558;-4.644;2023-11-22T11:19:39;102234.69;;;13.78;77.74
64853;BME280;56050;55.558;-4.644;2023-11-22T11:22:07;102245.56;;;13.82;78.05
64853;BME280;56050;55.558;-4.644;2023-11-22T11:24:39;102234.38;;;13.83;77.56
64853;BME280;56050;55.558;-4.644;2023-11-22T11:27:06;102244.84;;;13.85;77.13
64853;BME280;56050;55.558;-4.644;2023-11-22T11:29:34;102247.16;;;13.83;77.27
64853;BME280;56050;55.558;-4.644;2023-11-22T11:31:59;102236.66;;;13.81;76.81
64853;BME280;56050;55.558;-4.644;2023-11-22T11:34:27;102244.78;;;13.81;76.88
64853;BME280;56050;55.558;-4.644;2023-11-22T11:36:55;102249.44;;;13.81;76.84
64853;BME280;56050;55.558;-4.644;2023-11-22T11:39:27;102264.94;;;13.80;76.54
64853;BME280;56050;55.558;-4.644;2023-11-22T11:42:12;102260.25;;;13.81;76.76
64853;BME280;56050;55.558;-4.644;2023-11-22T11:44:51;102247.84;;;13.76;76.70
64853;BME280;56050;55.558;-4.644;2023-11-22T11:47:17;102244.34;;;13.76;76.67
64853;BME280;56050;55.558;-4.644;2023-11-22T11:49:42;102237.38;;;13.75;76.62
64853;BME280;56050;55.558;-4.644;2023-11-22T11:52:08;102230.78;;;13.72;76.81
64853;BME280;56050;55.558;-4.644;2023-11-22T11:54:34;102229.94;;;13.68;77.14
64853;BME280;56050;55.558;-4.644;2023-11-22T11:57:00;102225.69;;;13.67;77.16
64853;BME280;56050;55.558;-4.644;2023-11-22T11:59:26;102225.28;;;13.65;77.51
64853;BME280;56050;55.558;-4.644;2023-11-22T12:01:55;102237.63;;;13.63;77.61
64853;BME280;56050;55.558;-4.644;2023-11-22T12:04:24;102229.88;;;13.61;77.56
64853;BME280;56050;55.558;-4.644;2023-11-22T12:06:51;102230.28;;;13.63;77.78
64853;BME280;56050;55.558;-4.644;2023-11-22T12:09:24;102229.16;;;13.64;77.90
64853;BME280;56050;55.558;-4.644;2023-11-22T12:11:50;102223.31;;;13.62;77.88
64853;BME280;56050;55.558;-4.644;2023-11-22T12:14:16;102230.28;;;13.63;78.04
64853;BME280;56050;55.558;-4.644;2023-11-22T12:16:41;102223.63;;;13.57;77.89
64853;BME280;56050;55.558;-4.644;2023-11-22T12:19:09;102225.53;;;13.53;78.34
64853;BME280;56050;55.558;-4.644;2023-11-22T12:21:36;102235.94;;;13.51;78.50
64853;BME280;56050;55.558;-4.644;2023-11-22T12:24:02;102234.41;;;13.53;78.62
64853;BME280;56050;55.558;-4.644;2023-11-22T12:26:31;102232.16;;;13.59;78.46
64853;BME280;56050;55.558;-4.644;2023-11-22T12:28:58;102245.41;;;13.64;78.29
64853;BME280;56050;55.558;-4.644;2023-11-22T12:31:24;102255.47;;;13.67;78.11
64853;BME280;56050;55.558;-4.644;2023-11-22T12:33:50;102245.47;;;13.71;78.02
64853;BME280;56050;55.558;-4.644;2023-11-22T12:36:15;102232.75;;;13.75;77.79
64853;BME280;56050;55.558;-4.644;2023-11-22T12:38:42;102242.88;;;13.82;77.56
64853;BME280;56050;55.558;-4.644;2023-11-22T12:41:08;102239.47;;;13.88;77.32